Time;durP1;ratioP1;P1;durP2;ratioP2;P2;SDS_P1;SDS_P2;PMS_P1;PMS_P2;Temp;Humidity;BMP_temperature;BMP_pressure;BME280_temperature;BME280_humidity;BME280_pressure;Samples;Min_cycle;Max_cycle;Signal;HPM_P1;HPM_P2
2022/03/18 00:04:11;;;;;;;;;;;;;;;4.46;65.42285;103999.9;;;;-80
2022/03/18 00:09:11;;;;;;;;;;;;;;;4.43;66.12988;103992.7;;;;-80
2022/03/18 00:12:24;;;;;;;4.8;1.7;;;;;;;;;;;;;-79
2022/03/18 00:14:14;;;;;;;;;;;;;;;4.39;65.82813;103999.7;;;;-82
2022/03/18 00:19:11;;;;;;;;;;;;;;;4.38;65.67383;104013.9;;;;-81
2022/03/18 00:24:14;;;;;;;;;;;;;;;4.33;65.6543;104027.4;;;;-80
2022/03/18 00:29:11;;;;;;;;;;;;;;;4.29;65.42969;104024.3;;;;-79
2022/03/18 00:34:10;;;;;;;;;;;;;;;4.26;65.68652;104023.5;;;;-79
2022/03/18 00:39:12;;;;;;;;;;;;;;;4.22;65.62793;104017.7;;;;-81
2022/03/18 00:42:24;;;;;;;7.3;1.8;;;;;;;;;;;;;-79
2022/03/18 00:44:11;;;;;;;;;;;;;;;4.18;65.7959;104027.6;;;;-79
2022/03/18 00:54:10;;;;;;;;;;;;;;;4.14;65.38379;104021.6;;;;-81
2022/03/18 00:59:10;;;;;;;;;;;;;;;4.09;65.39746;104023.1;;;;-79
2022/03/18 01:04:14;;;;;;;;;;;;;;;4.06;65.38281;104028.9;;;;-80
2022/03/18 01:09:11;;;;;;;;;;;;;;;4.04;65.3584;104033.3;;;;-78
2022/03/18 01:12:25;;;;;;;4.1;1.7;;;;;;;;;;;;;-79
2022/03/18 01:14:11;;;;;;;;;;;;;;;4.01;65.50684;104036.6;;;;-78
2022/03/18 01:19:11;;;;;;;;;;;;;;;3.98;65.58008;104033.3;;;;-80
2022/03/18 01:24:12;;;;;;;;;;;;;;;3.96;65.32324;104036.1;;;;-80
2022/03/18 01:29:13;;;;;;;;;;;;;;;3.93;65.16797;104035.5;;;;-79
2022/03/18 01:34:10;;;;;;;;;;;;;;;3.89;65.30273;104037.2;;;;-80
2022/03/18 01:39:12;;;;;;;;;;;;;;;3.86;65.33203;104030.4;;;;-78
2022/03/18 01:42:25;;;;;;;4.6;1.4;;;;;;;;;;;;;-79
2022/03/18 01:44:12;;;;;;;;;;;;;;;3.82;65.43457;104032.5;;;;-80
2022/03/18 01:49:11;;;;;;;;;;;;;;;3.79;65.30957;104030.1;;;;-80
2022/03/18 01:59:11;;;;;;;;;;;;;;;3.73;65.25684;104035.6;;;;-80
2022/03/18 02:04:11;;;;;;;;;;;;;;;3.7;65.25195;104035.8;;;;-79
2022/03/18 02:09:11;;;;;;;;;;;;;;;3.67;65.09473;104043.5;;;;-78
2022/03/18 02:12:27;;;;;;;4.4;1.6;;;;;;;;;;;;;-80
2022/03/18 02:14:11;;;;;;;;;;;;;;;3.64;65.02344;104050.5;;;;-80
2022/03/18 02:19:12;;;;;;;;;;;;;;;3.59;65.14648;104057.5;;;;-80
2022/03/18 02:24:11;;;;;;;;;;;;;;;3.53;65.18359;104060.4;;;;-80
2022/03/18 02:29:17;;;;;;;;;;;;;;;3.48;65.17578;104067.2;;;;-81
2022/03/18 02:34:14;;;;;;;;;;;;;;;3.42;65.24316;104072.4;;;;-79
2022/03/18 02:39:13;;;;;;;;;;;;;;;3.37;65.30078;104066.7;;;;-79
2022/03/18 02:42:27;;;;;;;4.1;1.4;;;;;;;;;;;;;-82
2022/03/18 02:44:11;;;;;;;;;;;;;;;3.28;65.25391;104066.6;;;;-79
2022/03/18 02:49:11;;;;;;;;;;;;;;;3.27;65.33984;104073.1;;;;-79
2022/03/18 02:54:12;;;;;;;;;;;;;;;3.21;65.38477;104076.3;;;;-81
2022/03/18 02:59:13;;;;;;;;;;;;;;;3.18;65.40332;104084.9;;;;-80
2022/03/18 03:04:11;;;;;;;;;;;;;;;3.12;65.28418;104082.6;;;;-80
2022/03/18 03:09:16;;;;;;;;;;;;;;;3.05;65.35254;104091.2;;;;-79
2022/03/18 03:12:28;;;;;;;4.3;1.6;;;;;;;;;;;;;-79
2022/03/18 03:14:13;;;;;;;;;;;;;;;3;65.47461;104089.9;;;;-80
2022/03/18 03:19:12;;;;;;;;;;;;;;;2.95;65.50879;104094.2;;;;-81
2022/03/18 03:24:11;;;;;;;;;;;;;;;2.89;65.37109;104093.4;;;;-80
2022/03/18 03:29:11;;;;;;;;;;;;;;;2.83;65.6123;104094.4;;;;-80
2022/03/18 03:34:14;;;;;;;;;;;;;;;2.8;65.39941;104093.5;;;;-78
2022/03/18 03:39:10;;;;;;;;;;;;;;;2.77;65.51465;104099;;;;-80
2022/03/18 03:42:25;;;;;;;4.6;1.4;;;;;;;;;;;;;-79
2022/03/18 03:44:12;;;;;;;;;;;;;;;2.73;65.54199;104106.3;;;;-79
2022/03/18 03:49:11;;;;;;;;;;;;;;;2.71;65.69043;104115.5;;;;-78
2022/03/18 03:54:13;;;;;;;;;;;;;;;2.7;65.44922;104121.4;;;;-81
2022/03/18 03:59:10;;;;;;;;;;;;;;;2.69;65.26367;104126.7;;;;-80
2022/03/18 04:04:11;;;;;;;;;;;;;;;2.68;65.25;104121.3;;;;-80
2022/03/18 04:09:10;;;;;;;;;;;;;;;2.63;65.41797;104126.2;;;;-80
2022/03/18 04:12:25;;;;;;;4.8;1.6;;;;;;;;;;;;;-79
2022/03/18 04:14:11;;;;;;;;;;;;;;;2.59;65.29199;104137;;;;-79
2022/03/18 04:19:10;;;;;;;;;;;;;;;2.54;65.49023;104132.6;;;;-80
2022/03/18 04:24:11;;;;;;;;;;;;;;;2.51;65.40918;104136.2;;;;-80
2022/03/18 04:29:12;;;;;;;;;;;;;;;2.48;65.4707;104134.8;;;;-80
2022/03/18 04:34:11;;;;;;;;;;;;;;;2.43;65.40918;104139.7;;;;-79
2022/03/18 04:42:28;;;;;;;2.7;1.2;;;;;;;;;;;;;-79
2022/03/18 04:44:11;;;;;;;;;;;;;;;2.36;65.44141;104148.2;;;;-81
2022/03/18 04:49:14;;;;;;;;;;;;;;;2.32;65.39258;104164.7;;;;-78
2022/03/18 04:54:15;;;;;;;;;;;;;;;2.3;65.41016;104159.2;;;;-79
2022/03/18 04:59:18;;;;;;;;;;;;;;;2.26;65.41504;104161;;;;-80
2022/03/18 05:04:12;;;;;;;;;;;;;;;2.22;65.39941;104160;;;;-80
2022/03/18 05:09:11;;;;;;;;;;;;;;;2.2;65.52734;104181.1;;;;-79
2022/03/18 05:12:26;;;;;;;3.1;1.3;;;;;;;;;;;;;-78
2022/03/18 05:14:11;;;;;;;;;;;;;;;2.18;65.45898;104191;;;;-79
2022/03/18 05:19:10;;;;;;;;;;;;;;;2.16;65.4873;104202.1;;;;-79
2022/03/18 05:24:16;;;;;;;;;;;;;;;2.13;65.40723;104210.8;;;;-78
2022/03/18 05:29:27;;;;;;;;;;;;;;;2.11;65.55469;104215.7;;;;-78
2022/03/18 05:34:18;;;;;;;;;;;;;;;2.08;65.30176;104217.4;;;;-80
2022/03/18 05:39:10;;;;;;;;;;;;;;;2.04;65.44727;104219.8;;;;-79
2022/03/18 05:42:25;;;;;;;3.4;1.1;;;;;;;;;;;;;-79
2022/03/18 05:44:10;;;;;;;;;;;;;;;2.01;65.57422;104228.7;;;;-80
2022/03/18 05:49:12;;;;;;;;;;;;;;;2;65.58203;104238.6;;;;-79
2022/03/18 05:54:11;;;;;;;;;;;;;;;1.94;65.61719;104242.1;;;;-79
2022/03/18 05:59:12;;;;;;;;;;;;;;;1.94;65.44141;104236.1;;;;-80
2022/03/18 06:04:11;;;;;;;;;;;;;;;1.91;65.50391;104244.5;;;;-80
2022/03/18 06:12:25;;;;;;;3.8;1.3;;;;;;;;;;;;;-79
2022/03/18 06:14:18;;;;;;;;;;;;;;;1.9;65.49219;104238.5;;;;-79
2022/03/18 06:19:21;;;;;;;;;;;;;;;1.92;65.47266;104255.9;;;;-79
2022/03/18 06:24:12;;;;;;;;;;;;;;;1.96;65.47852;104273.8;;;;-79
2022/03/18 06:29:16;;;;;;;;;;;;;;;2.06;65.22168;104279.5;;;;-78
2022/03/18 06:34:14;;;;;;;;;;;;;;;2.23;65.09375;104282.4;;;;-81
2022/03/18 06:39:14;;;;;;;;;;;;;;;2.4;64.95801;104286.7;;;;-80
2022/03/18 06:42:24;;;;;;;4.5;1.5;;;;;;;;;;;;;-79
2022/03/18 06:44:11;;;;;;;;;;;;;;;2.57;64.7627;104293.3;;;;-79
2022/03/18 06:49:12;;;;;;;;;;;;;;;2.75;64.7793;104295.5;;;;-79
2022/03/18 06:54:13;;;;;;;;;;;;;;;2.93;63.93359;104290.4;;;;-80
2022/03/18 06:59:10;;;;;;;;;;;;;;;3.14;63.33105;104299.1;;;;-81
2022/03/18 07:04:10;;;;;;;;;;;;;;;3.3;63.3457;104303.8;;;;-79
2022/03/18 07:09:11;;;;;;;;;;;;;;;3.44;63.30957;104303.6;;;;-81
2022/03/18 07:12:27;;;;;;;5.8;1.8;;;;;;;;;;;;;-81
2022/03/18 07:14:10;;;;;;;;;;;;;;;3.59;63.36426;104310.9;;;;-78
2022/03/18 07:19:10;;;;;;;;;;;;;;;3.8;63.24316;104319.9;;;;-80
2022/03/18 07:24:12;;;;;;;;;;;;;;;4.06;63.0625;104325.6;;;;-82
2022/03/18 07:29:12;;;;;;;;;;;;;;;4.39;63.75879;104338.4;;;;-80
2022/03/18 07:34:10;;;;;;;;;;;;;;;4.7;63.47461;104344.8;;;;-81
2022/03/18 07:39:10;;;;;;;;;;;;;;;5.02;63.70801;104359.7;;;;-80
2022/03/18 07:42:27;;;;;;;8;2.3;;;;;;;;;;;;;-80
2022/03/18 07:44:11;;;;;;;;;;;;;;;5.35;63.8877;104365.9;;;;-80
2022/03/18 07:49:11;;;;;;;;;;;;;;;5.67;63.29883;104372.1;;;;-79
2022/03/18 07:54:11;;;;;;;;;;;;;;;6.07;62.88477;104377.3;;;;-80
2022/03/18 07:59:10;;;;;;;;;;;;;;;6.61;62.90723;104383.7;;;;-80
2022/03/18 08:04:12;;;;;;;;;;;;;;;7.14;62.4873;104393.5;;;;-80
2022/03/18 08:09:12;;;;;;;;;;;;;;;7.67;62.14453;104403.2;;;;-80
2022/03/18 08:12:28;;;;;;;5.6;2.6;;;;;;;;;;;;;-79
2022/03/18 08:14:12;;;;;;;;;;;;;;;8.21;62.69824;104407.9;;;;-79
2022/03/18 08:19:11;;;;;;;;;;;;;;;8.74;62.75195;104411.8;;;;-80
2022/03/18 08:24:11;;;;;;;;;;;;;;;9.28;62.85156;104402.8;;;;-80
2022/03/18 08:29:11;;;;;;;;;;;;;;;9.9;62.47461;104409.4;;;;-80
2022/03/18 08:34:10;;;;;;;;;;;;;;;10.51;61.92871;104419;;;;-79
2022/03/18 08:39:10;;;;;;;;;;;;;;;11.11;61.6123;104417.4;;;;-81
2022/03/18 08:42:25;;;;;;;7.4;3;;;;;;;;;;;;;-78
2022/03/18 08:44:19;;;;;;;;;;;;;;;11.7;60.64746;104416.3;;;;-80
2022/03/18 08:49:16;;;;;;;;;;;;;;;12.41;59.90723;104419.3;;;;-80
2022/03/18 08:54:16;;;;;;;;;;;;;;;13.01;58.09863;104425.1;;;;-81
2022/03/18 08:59:11;;;;;;;;;;;;;;;13.47;57.11523;104427.5;;;;-80
2022/03/18 09:04:11;;;;;;;;;;;;;;;13.97;56.75391;104433.1;;;;-81
2022/03/18 09:09:10;;;;;;;;;;;;;;;14.33;56.05762;104438.9;;;;-81
2022/03/18 09:12:29;;;;;;;9;3;;;;;;;;;;;;;-78
2022/03/18 09:14:13;;;;;;;;;;;;;;;14.67;55.29102;104455.6;;;;-81
2022/03/18 09:19:11;;;;;;;;;;;;;;;14.99;54.83594;104471.6;;;;-80
2022/03/18 09:24:11;;;;;;;;;;;;;;;15.26;54.69043;104475.2;;;;-80
2022/03/18 09:29:12;;;;;;;;;;;;;;;15.44;54.7793;104476.2;;;;-80
2022/03/18 09:34:12;;;;;;;;;;;;;;;15.64;54.18359;104473.5;;;;-81
2022/03/18 09:39:12;;;;;;;;;;;;;;;15.97;53.42188;104467.2;;;;-81
2022/03/18 09:42:28;;;;;;;10.4;3.7;;;;;;;;;;;;;-82
2022/03/18 09:44:11;;;;;;;;;;;;;;;16.28;52.84961;104477.2;;;;-81
2022/03/18 09:49:17;;;;;;;;;;;;;;;16.56;52.47559;104480;;;;-81
2022/03/18 09:54:11;;;;;;;;;;;;;;;16.83;51.44434;104480.3;;;;-80
2022/03/18 09:59:11;;;;;;;;;;;;;;;17;51.54395;104493;;;;-81
2022/03/18 10:04:12;;;;;;;;;;;;;;;17.2;50.45508;104499.5;;;;-80
2022/03/18 10:09:11;;;;;;;;;;;;;;;17.33;50.49316;104499.8;;;;-81
2022/03/18 10:12:37;;;;;;;9.6;3.4;;;;;;;;;;;;;-80
2022/03/18 10:14:12;;;;;;;;;;;;;;;17.4;50.6377;104493.8;;;;-79
2022/03/18 10:19:15;;;;;;;;;;;;;;;17.58;50.92969;104499.1;;;;-79
2022/03/18 10:24:16;;;;;;;;;;;;;;;17.73;50.41406;104503.1;;;;-80
2022/03/18 10:29:14;;;;;;;;;;;;;;;17.86;50.8252;104506.4;;;;-82
2022/03/18 10:39:15;;;;;;;;;;;;;;;18.19;56.44727;104505.4;;;;-80
2022/03/18 10:42:32;;;;;;;11.3;3.9;;;;;;;;;;;;;-84
2022/03/18 10:44:15;;;;;;;;;;;;;;;18.35;57.41992;104511.8;;;;-78
2022/03/18 10:49:11;;;;;;;;;;;;;;;18.57;59.25195;104516.8;;;;-80
2022/03/18 10:54:13;;;;;;;;;;;;;;;18.72;60.89551;104523.2;;;;-80
2022/03/18 10:59:15;;;;;;;;;;;;;;;18.87;60.75684;104521.7;;;;-80
2022/03/18 11:04:15;;;;;;;;;;;;;;;19.05;61.08789;104526.8;;;;-80
2022/03/18 11:09:12;;;;;;;;;;;;;;;19.21;61.61914;104527;;;;-80
2022/03/18 11:12:35;;;;;;;9.1;3.6;;;;;;;;;;;;;-81
2022/03/18 11:14:13;;;;;;;;;;;;;;;19.34;62.07031;104532.9;;;;-82
2022/03/18 11:19:14;;;;;;;;;;;;;;;19.57;61.70313;104540.8;;;;-81
2022/03/18 11:24:18;;;;;;;;;;;;;;;19.7;62.0625;104536.4;;;;-81
2022/03/18 11:29:19;;;;;;;;;;;;;;;19.89;61.9873;104540;;;;-82
2022/03/18 11:34:20;;;;;;;;;;;;;;;20.06;61.33887;104540.1;;;;-81
2022/03/18 11:39:34;;;;;;;;;;;;;;;20.2;62.17773;104534.6;;;;-80
2022/03/18 11:42:55;;;;;;;;;;;;;;;;;;;;;
2022/03/18 11:44:23;;;;;;;;;;;;;;;20.34;61.77734;104537.2;;;;-81
2022/03/18 11:49:11;;;;;;;;;;;;;;;20.43;61.65137;104536.8;;;;-83
2022/03/18 11:54:25;;;;;;;;;;;;;;;20.54;61.45117;104542.8;;;;-83
2022/03/18 11:59:25;;;;;;;;;;;;;;;20.6;61.96094;104536.2;;;;-80
2022/03/18 12:04:21;;;;;;;;;;;;;;;;;;;;;
2022/03/18 12:09:11;;;;;;;;;;;;;;;20.72;62.45508;104537.9;;;;-82
2022/03/18 12:12:45;;;;;;;9.1;3.4;;;;;;;;;;;;;-82
2022/03/18 12:14:19;;;;;;;;;;;;;;;20.84;61.83398;104532.7;;;;-81
2022/03/18 12:24:25;;;;;;;;;;;;;;;20.99;62.01465;104526.4;;;;-82
2022/03/18 12:29:27;;;;;;;;;;;;;;;21.06;62.27441;104521.9;;;;-81
2022/03/18 12:34:17;;;;;;;;;;;;;;;21.16;61.83301;104526.9;;;;-82
2022/03/18 12:39:15;;;;;;;;;;;;;;;21.18;62.13281;104526.5;;;;-85
2022/03/18 12:42:56;;;;;;;6.7;2.4;;;;;;;;;;;;;-82
2022/03/18 12:44:11;;;;;;;;;;;;;;;21.19;62.40723;104521.1;;;;-83
2022/03/18 12:49:24;;;;;;;;;;;;;;;21.2;61.75781;104520.3;;;;-84
2022/03/18 12:54:14;;;;;;;;;;;;;;;21.23;62.44727;104521.2;;;;-82
2022/03/18 12:59:20;;;;;;;;;;;;;;;21.23;62.37793;104519.9;;;;-84
2022/03/18 13:04:12;;;;;;;;;;;;;;;21.28;62.53418;104522.9;;;;-84
2022/03/18 13:09:18;;;;;;;;;;;;;;;21.31;62.6748;104516;;;;-85
2022/03/18 13:12:50;;;;;;;8;2;;;;;;;;;;;;;-83
2022/03/18 13:14:11;;;;;;;;;;;;;;;21.35;62.69141;104516.6;;;;-83
2022/03/18 13:19:17;;;;;;;;;;;;;;;21.43;62.29199;104502.3;;;;-85
2022/03/18 13:24:12;;;;;;;;;;;;;;;21.51;62.21094;104498;;;;-86
2022/03/18 13:29:15;;;;;;;;;;;;;;;21.57;61.85547;104496.2;;;;-84
2022/03/18 13:34:11;;;;;;;;;;;;;;;21.58;60.98926;104494.6;;;;-84
2022/03/18 13:39:13;;;;;;;;;;;;;;;21.54;62.14844;104484.6;;;;-84
2022/03/18 13:44:28;;;;;;;;;;;;;;;21.54;61.44238;104487;;;;-84
2022/03/18 13:49:43;;;;;;;;;;;;;;;;;;;;;
2022/03/18 13:54:34;;;;;;;;;;;;;;;21.57;60.88477;104486.3;;;;-84
2022/03/18 13:59:25;;;;;;;;;;;;;;;21.57;59.64063;104485.5;;;;-82
2022/03/18 14:04:11;;;;;;;;;;;;;;;21.5;60.00781;104490.6;;;;-80
2022/03/18 14:09:19;;;;;;;;;;;;;;;21.47;60.4375;104493.7;;;;-81
2022/03/18 14:13:08;;;;;;;4.7;1.7;;;;;;;;;;;;;-82
2022/03/18 14:14:29;;;;;;;;;;;;;;;21.39;60.18848;104494.6;;;;-82
2022/03/18 14:19:12;;;;;;;;;;;;;;;21.36;60.34375;104490.2;;;;-82
2022/03/18 14:24:14;;;;;;;;;;;;;;;21.34;59.94238;104490.6;;;;-83
2022/03/18 14:29:17;;;;;;;;;;;;;;;21.35;59.7832;104495.2;;;;-84
2022/03/18 14:34:11;;;;;;;;;;;;;;;21.32;58.43262;104490.6;;;;-83
2022/03/18 14:39:18;;;;;;;;;;;;;;;21.25;58.38867;104494.2;;;;-82
2022/03/18 14:42:58;;;;;;;6.6;2.1;;;;;;;;;;;;;-79
2022/03/18 14:44:15;;;;;;;;;;;;;;;21.13;58.71582;104490.8;;;;-83
2022/03/18 14:49:13;;;;;;;;;;;;;;;21.02;58.29102;104485.9;;;;-82
2022/03/18 14:56:17;;;;;;;;;;;;;;;20.97;57.57715;104483.5;;;;-84
2022/03/18 14:59:13;;;;;;;;;;;;;;;20.85;57.83496;104483.3;;;;-81
2022/03/18 15:04:15;;;;;;;;;;;;;;;20.78;57.39355;104476.4;;;;-82
2022/03/18 15:09:14;;;;;;;;;;;;;;;20.76;56.27246;104479.9;;;;-84
2022/03/18 15:12:59;;;;;;;7.3;2.3;;;;;;;;;;;;;-84
2022/03/18 15:14:22;;;;;;;;;;;;;;;20.68;56.14941;104469.1;;;;-84
2022/03/18 15:19:24;;;;;;;;;;;;;;;20.49;55.57813;104470.6;;;;-84
2022/03/18 15:24:18;;;;;;;;;;;;;;;20.29;56.48828;104470.9;;;;-82
2022/03/18 15:29:13;;;;;;;;;;;;;;;20.14;55.87695;104472.4;;;;-81
2022/03/18 15:34:12;;;;;;;;;;;;;;;19.97;56.07129;104468.2;;;;-82
2022/03/18 15:39:11;;;;;;;;;;;;;;;19.8;56.24316;104461.9;;;;-82
2022/03/18 15:43:07;;;;;;;8.3;3.4;;;;;;;;;;;;;-81
2022/03/18 15:44:13;;;;;;;;;;;;;;;19.62;56.82324;104465.7;;;;-83
2022/03/18 15:49:14;;;;;;;;;;;;;;;19.48;57.31641;104468.4;;;;-82
2022/03/18 15:54:11;;;;;;;;;;;;;;;19.31;57.60254;104470.5;;;;-82
2022/03/18 15:59:11;;;;;;;;;;;;;;;19.12;57.49902;104477.8;;;;-83
2022/03/18 16:04:14;;;;;;;;;;;;;;;18.98;56.96875;104475.1;;;;-81
2022/03/18 16:09:10;;;;;;;;;;;;;;;18.79;56.9668;104479.5;;;;-81
2022/03/18 16:13:05;;;;;;;10.5;3.9;;;;;;;;;;;;;-82
2022/03/18 16:14:21;;;;;;;;;;;;;;;18.61;57.1709;104475.8;;;;-81
2022/03/18 16:19:15;;;;;;;;;;;;;;;18.46;57.53613;104481;;;;-81
2022/03/18 16:24:11;;;;;;;;;;;;;;;18.25;56.85254;104476.1;;;;-84
2022/03/18 16:29:10;;;;;;;;;;;;;;;18.06;56.87207;104482;;;;-82
2022/03/18 16:34:10;;;;;;;;;;;;;;;17.83;56.20996;104481.3;;;;-80
2022/03/18 16:39:14;;;;;;;;;;;;;;;17.6;56.73438;104482;;;;-82
2022/03/18 16:43:11;;;;;;;11.1;2.9;;;;;;;;;;;;;-84
2022/03/18 16:44:16;;;;;;;;;;;;;;;17.4;56.84473;104476.5;;;;-84
2022/03/18 16:54:21;;;;;;;;;;;;;;;16.95;57.24121;104480.5;;;;-85
2022/03/18 16:59:15;;;;;;;;;;;;;;;16.74;57.59668;104485.8;;;;-82
2022/03/18 17:04:10;;;;;;;;;;;;;;;16.53;57.21973;104482.1;;;;-80
2022/03/18 17:09:15;;;;;;;;;;;;;;;16.24;57.22754;104488;;;;-80
2022/03/18 17:13:11;;;;;;;9.4;2.6;;;;;;;;;;;;;-81
2022/03/18 17:14:12;;;;;;;;;;;;;;;15.97;57.37207;104494.4;;;;-82
2022/03/18 17:19:11;;;;;;;;;;;;;;;15.69;57.4375;104495.6;;;;-80
2022/03/18 17:24:13;;;;;;;;;;;;;;;15.43;57.3916;104498.2;;;;-82
2022/03/18 17:29:12;;;;;;;;;;;;;;;15.19;57.50781;104506;;;;-80
2022/03/18 17:34:18;;;;;;;;;;;;;;;14.96;57.96094;104506.3;;;;-82
2022/03/18 17:39:10;;;;;;;;;;;;;;;14.74;57.45996;104510.9;;;;-80
2022/03/18 17:43:11;;;;;;;8.1;2.4;;;;;;;;;;;;;-80
2022/03/18 17:44:11;;;;;;;;;;;;;;;14.47;57.69434;104518.8;;;;-80
2022/03/18 17:49:13;;;;;;;;;;;;;;;14.26;57.66797;104525.2;;;;-82
2022/03/18 17:54:12;;;;;;;;;;;;;;;14.03;57.84863;104525.7;;;;-80
2022/03/18 17:59:16;;;;;;;;;;;;;;;13.8;58.04395;104532.9;;;;-81
2022/03/18 18:04:10;;;;;;;;;;;;;;;13.58;58.28418;104537.3;;;;-81
2022/03/18 18:09:11;;;;;;;;;;;;;;;13.34;58.54492;104535.5;;;;-82
2022/03/18 18:13:13;;;;;;;11.2;2;;;;;;;;;;;;;-80
2022/03/18 18:14:15;;;;;;;;;;;;;;;13.13;58.74023;104542.4;;;;-81
2022/03/18 18:24:13;;;;;;;;;;;;;;;12.73;59.34668;104548.3;;;;-80
2022/03/18 18:29:11;;;;;;;;;;;;;;;12.53;59.47754;104556.8;;;;-81
2022/03/18 18:34:24;;;;;;;;;;;;;;;;;;;;;
2022/03/18 18:39:14;;;;;;;;;;;;;;;12.18;60.1875;104576.1;;;;-79
2022/03/18 18:43:17;;;;;;;7;2.2;;;;;;;;;;;;;-80
2022/03/18 18:44:11;;;;;;;;;;;;;;;12.01;60.64551;104581.6;;;;-80
2022/03/18 18:49:14;;;;;;;;;;;;;;;11.86;60.69043;104590;;;;-80
2022/03/18 18:54:17;;;;;;;;;;;;;;;11.71;61.0498;104590.6;;;;-80
2022/03/18 18:59:12;;;;;;;;;;;;;;;11.55;61.34082;104595.4;;;;-81
2022/03/18 19:04:12;;;;;;;;;;;;;;;11.41;61.56543;104598.4;;;;-80
2022/03/18 19:09:18;;;;;;;;;;;;;;;11.28;61.80371;104607.3;;;;-81
2022/03/18 19:13:16;;;;;;;10.4;2.4;;;;;;;;;;;;;-79
2022/03/18 19:14:11;;;;;;;;;;;;;;;11.16;62.15332;104605.1;;;;-80
2022/03/18 19:19:10;;;;;;;;;;;;;;;11.03;62.45898;104602.4;;;;-81
2022/03/18 19:24:24;;;;;;;;;;;;;;;10.9;62.56445;104607;;;;-81
2022/03/18 19:29:13;;;;;;;;;;;;;;;10.77;62.85645;104604.9;;;;-79
2022/03/18 19:34:12;;;;;;;;;;;;;;;10.65;63.09473;104603.3;;;;-81
2022/03/18 19:39:11;;;;;;;;;;;;;;;10.54;63.2666;104609.7;;;;-81
2022/03/18 19:43:27;;;;;;;8.5;2.2;;;;;;;;;;;;;-79
2022/03/18 19:44:14;;;;;;;;;;;;;;;10.42;63.5625;104607.1;;;;-79
2022/03/18 19:49:17;;;;;;;;;;;;;;;10.32;63.71289;104618.7;;;;-80
2022/03/18 19:54:12;;;;;;;;;;;;;;;10.22;63.97656;104623.2;;;;-81
2022/03/18 20:04:13;;;;;;;;;;;;;;;10.01;64.46777;104634.7;;;;-80
2022/03/18 20:09:11;;;;;;;;;;;;;;;9.91;64.40918;104647.3;;;;-80
2022/03/18 20:13:18;;;;;;;11.9;2.6;;;;;;;;;;;;;-80
2022/03/18 20:14:25;;;;;;;;;;;;;;;9.82;64.81641;104641.9;;;;-80
2022/03/18 20:19:10;;;;;;;;;;;;;;;9.73;65.24609;104650;;;;-79
2022/03/18 20:24:21;;;;;;;;;;;;;;;9.63;65.27734;104653;;;;-79
2022/03/18 20:29:13;;;;;;;;;;;;;;;9.55;65.2002;104651.7;;;;-81
2022/03/18 20:34:13;;;;;;;;;;;;;;;9.46;65.52832;104661.9;;;;-79
2022/03/18 20:39:10;;;;;;;;;;;;;;;9.38;65.83789;104660.9;;;;-81
2022/03/18 20:43:18;;;;;;;9.1;2.6;;;;;;;;;;;;;-79
2022/03/18 20:44:12;;;;;;;;;;;;;;;9.3;65.92676;104663.5;;;;-81
2022/03/18 20:49:14;;;;;;;;;;;;;;;9.23;66.16992;104664;;;;-81
2022/03/18 20:54:11;;;;;;;;;;;;;;;9.15;66.45703;104662.7;;;;-79
2022/03/18 20:59:19;;;;;;;;;;;;;;;9.08;66.60156;104668;;;;-79
2022/03/18 21:04:11;;;;;;;;;;;;;;;9.02;66.92285;104671.9;;;;-79
2022/03/18 21:09:13;;;;;;;;;;;;;;;8.95;67.11328;104668.8;;;;-80
2022/03/18 21:13:23;;;;;;;14.3;2.9;;;;;;;;;;;;;-80
2022/03/18 21:14:14;;;;;;;;;;;;;;;8.89;67.45605;104674.1;;;;-79
2022/03/18 21:19:13;;;;;;;;;;;;;;;8.83;67.52441;104669.6;;;;-79
2022/03/18 21:24:10;;;;;;;;;;;;;;;8.76;67.31543;104678.8;;;;-79
2022/03/18 21:34:14;;;;;;;;;;;;;;;8.64;67.54004;104687.8;;;;-80
2022/03/18 21:39:13;;;;;;;;;;;;;;;8.58;67.85059;104687.5;;;;-81
2022/03/18 21:43:25;;;;;;;12.6;3.1;;;;;;;;;;;;;-78
2022/03/18 21:44:11;;;;;;;;;;;;;;;8.52;67.89648;104688.7;;;;-81
2022/03/18 21:49:12;;;;;;;;;;;;;;;8.45;68.24023;104687.8;;;;-79
2022/03/18 21:54:10;;;;;;;;;;;;;;;8.4;68.49609;104688;;;;-79
2022/03/18 21:59:13;;;;;;;;;;;;;;;8.34;68.62012;104691.2;;;;-79
2022/03/18 22:04:13;;;;;;;;;;;;;;;8.29;68.65625;104680.2;;;;-79
2022/03/18 22:09:14;;;;;;;;;;;;;;;8.25;68.82715;104683.1;;;;-80
2022/03/18 22:13:19;;;;;;;13.1;3.3;;;;;;;;;;;;;-79
2022/03/18 22:14:11;;;;;;;;;;;;;;;8.2;68.93945;104678.6;;;;-79
2022/03/18 22:19:10;;;;;;;;;;;;;;;8.14;69.16309;104681.3;;;;-81
2022/03/18 22:24:11;;;;;;;;;;;;;;;8.1;69.22168;104679.2;;;;-78
2022/03/18 22:29:13;;;;;;;;;;;;;;;8.06;69.23828;104669.3;;;;-78
2022/03/18 22:34:10;;;;;;;;;;;;;;;8.01;69.25293;104667.6;;;;-79
2022/03/18 22:39:15;;;;;;;;;;;;;;;7.96;69.60938;104665.9;;;;-79
2022/03/18 22:43:22;;;;;;;11.5;2.9;;;;;;;;;;;;;-79
2022/03/18 22:44:12;;;;;;;;;;;;;;;7.92;70.05273;104671.1;;;;-78
2022/03/18 22:49:10;;;;;;;;;;;;;;;7.85;69.98926;104671.8;;;;-79
2022/03/18 22:54:11;;;;;;;;;;;;;;;7.81;69.63965;104662.1;;;;-78
2022/03/18 22:59:12;;;;;;;;;;;;;;;7.77;69.47949;104657.8;;;;-80
2022/03/18 23:04:21;;;;;;;;;;;;;;;7.72;69.52637;104656.7;;;;-81
2022/03/18 23:09:10;;;;;;;;;;;;;;;7.67;69.49512;104657.7;;;;-79
2022/03/18 23:13:20;;;;;;;10.2;3.1;;;;;;;;;;;;;-80
2022/03/18 23:14:10;;;;;;;;;;;;;;;7.6;69.55078;104661.3;;;;-80
2022/03/18 23:19:18;;;;;;;;;;;;;;;7.56;69.56641;104664.9;;;;-80
2022/03/18 23:24:11;;;;;;;;;;;;;;;7.5;69.44531;104667.1;;;;-80
2022/03/18 23:29:13;;;;;;;;;;;;;;;7.44;69.81152;104669;;;;-80
2022/03/18 23:34:13;;;;;;;;;;;;;;;7.39;69.58398;104665.4;;;;-79
2022/03/18 23:39:16;;;;;;;;;;;;;;;7.35;69.59863;104663.1;;;;-79
2022/03/18 23:43:25;;;;;;;10.9;2.7;;;;;;;;;;;;;-78
2022/03/18 23:44:10;;;;;;;;;;;;;;;7.31;69.56934;104668.4;;;;-78
2022/03/18 23:49:10;;;;;;;;;;;;;;;7.26;69.65039;104666.4;;;;-79
2022/03/18 23:54:11;;;;;;;;;;;;;;;7.21;69.77441;104667.6;;;;-80
2022/03/18 23:59:11;;;;;;;;;;;;;;;7.18;69.60352;104663.2;;;;-78
